Gridley, Kansas
Current Conditions -  °F | °C
As of 6:09 AM on Friday 24 Oct 2014 (Local Time) from KEMP Reporting Station
Haze Haze  
Wind Chill: 57°   Ceiling: 200
Heat Index: 57°   Visibility: 2mi
Dew Point: 57°   Wind: 13mph
Humidity: 100%   Direction: 180°S
Pressure: 30.05"   Gusts: NA
Location:  38.1°N, 95.88°W
Report Text: KEMP 241109Z AUTO 18011KT 2SM BR OVC002 14/14 A3005 RMK AO2 T01390139
Loading
Personal Weather Stations






























Interactive Weather Map
Tropical Storm Tracking
New forecast layout! Learn more

10-Day Weather Forecast

Advertisements
Track Severe Weather on mobile